sensor_id;sensor_type;location;lat;lon;timestamp;P1;durP1;ratioP1;P2;durP2;ratioP2
16173;SDS011;14031;50.158;8.626;2024-02-21T00:01:22;11.30;;;4.40;;
16173;SDS011;14031;50.158;8.626;2024-02-21T00:03:49;8.93;;;4.10;;
16173;SDS011;14031;50.158;8.626;2024-02-21T00:06:16;16.20;;;4.23;;
16173;SDS011;14031;50.158;8.626;2024-02-21T00:08:42;9.17;;;4.33;;
16173;SDS011;14031;50.158;8.626;2024-02-21T00:11:09;8.03;;;4.07;;
16173;SDS011;14031;50.158;8.626;2024-02-21T00:13:37;9.87;;;4.20;;
16173;SDS011;14031;50.158;8.626;2024-02-21T00:16:04;11.27;;;4.43;;
16173;SDS011;14031;50.158;8.626;2024-02-21T00:18:31;11.10;;;4.43;;
16173;SDS011;14031;50.158;8.626;2024-02-21T00:20:58;9.80;;;4.43;;
16173;SDS011;14031;50.158;8.626;2024-02-21T00:23:26;6.83;;;4.13;;
16173;SDS011;14031;50.158;8.626;2024-02-21T00:25:53;9.37;;;4.60;;
16173;SDS011;14031;50.158;8.626;2024-02-21T00:28:20;12.23;;;4.27;;
16173;SDS011;14031;50.158;8.626;2024-02-21T00:30:48;9.53;;;5.17;;
16173;SDS011;14031;50.158;8.626;2024-02-21T00:33:16;10.23;;;5.20;;
16173;SDS011;14031;50.158;8.626;2024-02-21T00:35:43;10.37;;;4.10;;
16173;SDS011;14031;50.158;8.626;2024-02-21T00:38:09;11.43;;;4.13;;
16173;SDS011;14031;50.158;8.626;2024-02-21T00:40:36;7.80;;;4.30;;
16173;SDS011;14031;50.158;8.626;2024-02-21T00:43:03;8.97;;;4.37;;
16173;SDS011;14031;50.158;8.626;2024-02-21T00:45:30;9.47;;;4.20;;
16173;SDS011;14031;50.158;8.626;2024-02-21T00:47:58;10.10;;;4.40;;
16173;SDS011;14031;50.158;8.626;2024-02-21T00:50:24;12.33;;;4.50;;
16173;SDS011;14031;50.158;8.626;2024-02-21T00:52:51;12.97;;;4.80;;
16173;SDS011;14031;50.158;8.626;2024-02-21T00:55:18;9.53;;;4.23;;
16173;SDS011;14031;50.158;8.626;2024-02-21T00:57:44;9.20;;;4.47;;
16173;SDS011;14031;50.158;8.626;2024-02-21T01:00:12;15.60;;;5.37;;
16173;SDS011;14031;50.158;8.626;2024-02-21T01:02:39;9.60;;;4.83;;
16173;SDS011;14031;50.158;8.626;2024-02-21T01:05:07;9.33;;;5.17;;
16173;SDS011;14031;50.158;8.626;2024-02-21T01:07:34;6.87;;;4.70;;
16173;SDS011;14031;50.158;8.626;2024-02-21T01:10:01;7.07;;;4.47;;
16173;SDS011;14031;50.158;8.626;2024-02-21T01:12:28;11.60;;;4.23;;
16173;SDS011;14031;50.158;8.626;2024-02-21T01:14:54;7.77;;;5.37;;
16173;SDS011;14031;50.158;8.626;2024-02-21T01:17:21;7.13;;;4.77;;
16173;SDS011;14031;50.158;8.626;2024-02-21T01:19:48;5.30;;;4.47;;
16173;SDS011;14031;50.158;8.626;2024-02-21T01:22:16;9.77;;;4.57;;
16173;SDS011;14031;50.158;8.626;2024-02-21T01:24:43;16.97;;;4.73;;
16173;SDS011;14031;50.158;8.626;2024-02-21T01:27:09;6.17;;;4.77;;
16173;SDS011;14031;50.158;8.626;2024-02-21T01:29:36;9.20;;;5.50;;
16173;SDS011;14031;50.158;8.626;2024-02-21T01:32:03;9.07;;;5.03;;
16173;SDS011;14031;50.158;8.626;2024-02-21T01:34:31;9.03;;;4.63;;
16173;SDS011;14031;50.158;8.626;2024-02-21T01:36:57;9.83;;;4.43;;
16173;SDS011;14031;50.158;8.626;2024-02-21T01:39:30;9.03;;;4.67;;
16173;SDS011;14031;50.158;8.626;2024-02-21T01:41:57;14.00;;;4.87;;
16173;SDS011;14031;50.158;8.626;2024-02-21T01:44:24;12.00;;;5.13;;
16173;SDS011;14031;50.158;8.626;2024-02-21T01:46:51;7.30;;;5.83;;
16173;SDS011;14031;50.158;8.626;2024-02-21T01:49:19;8.43;;;4.97;;
16173;SDS011;14031;50.158;8.626;2024-02-21T01:51:46;8.93;;;6.23;;
16173;SDS011;14031;50.158;8.626;2024-02-21T01:54:12;11.77;;;4.93;;
16173;SDS011;14031;50.158;8.626;2024-02-21T01:56:42;11.50;;;5.90;;
16173;SDS011;14031;50.158;8.626;2024-02-21T01:59:09;6.00;;;4.87;;
16173;SDS011;14031;50.158;8.626;2024-02-21T02:01:37;6.90;;;5.27;;
16173;SDS011;14031;50.158;8.626;2024-02-21T02:04:04;11.23;;;5.13;;
16173;SDS011;14031;50.158;8.626;2024-02-21T02:06:31;8.10;;;4.77;;
16173;SDS011;14031;50.158;8.626;2024-02-21T02:08:58;5.97;;;5.23;;
16173;SDS011;14031;50.158;8.626;2024-02-21T02:11:24;12.00;;;5.40;;
16173;SDS011;14031;50.158;8.626;2024-02-21T02:13:52;9.30;;;5.50;;
16173;SDS011;14031;50.158;8.626;2024-02-21T02:16:19;10.53;;;6.10;;
16173;SDS011;14031;50.158;8.626;2024-02-21T02:18:46;17.27;;;5.57;;
16173;SDS011;14031;50.158;8.626;2024-02-21T02:21:13;11.83;;;6.43;;
16173;SDS011;14031;50.158;8.626;2024-02-21T02:23:57;11.63;;;6.00;;
16173;SDS011;14031;50.158;8.626;2024-02-21T02:26:25;9.83;;;5.43;;
16173;SDS011;14031;50.158;8.626;2024-02-21T02:28:52;16.27;;;5.67;;
16173;SDS011;14031;50.158;8.626;2024-02-21T02:31:19;9.53;;;5.20;;
16173;SDS011;14031;50.158;8.626;2024-02-21T02:33:46;9.77;;;4.40;;
16173;SDS011;14031;50.158;8.626;2024-02-21T02:36:13;9.07;;;5.30;;
16173;SDS011;14031;50.158;8.626;2024-02-21T02:38:39;12.13;;;4.80;;
16173;SDS011;14031;50.158;8.626;2024-02-21T02:41:07;9.90;;;5.43;;
16173;SDS011;14031;50.158;8.626;2024-02-21T02:43:34;7.57;;;5.10;;
16173;SDS011;14031;50.158;8.626;2024-02-21T02:46:01;11.13;;;5.43;;
16173;SDS011;14031;50.158;8.626;2024-02-21T02:48:28;12.70;;;4.97;;
16173;SDS011;14031;50.158;8.626;2024-02-21T02:50:55;13.77;;;4.87;;
16173;SDS011;14031;50.158;8.626;2024-02-21T02:53:22;12.23;;;5.43;;
16173;SDS011;14031;50.158;8.626;2024-02-21T02:55:49;10.80;;;6.13;;
16173;SDS011;14031;50.158;8.626;2024-02-21T02:58:17;7.90;;;5.03;;
16173;SDS011;14031;50.158;8.626;2024-02-21T03:00:43;12.03;;;5.23;;
16173;SDS011;14031;50.158;8.626;2024-02-21T03:03:10;12.07;;;5.50;;
16173;SDS011;14031;50.158;8.626;2024-02-21T03:05:38;12.57;;;5.90;;
16173;SDS011;14031;50.158;8.626;2024-02-21T03:08:05;12.13;;;5.63;;
16173;SDS011;14031;50.158;8.626;2024-02-21T03:10:32;8.27;;;4.57;;
16173;SDS011;14031;50.158;8.626;2024-02-21T03:12:58;14.50;;;5.50;;
16173;SDS011;14031;50.158;8.626;2024-02-21T03:15:27;8.57;;;5.27;;
16173;SDS011;14031;50.158;8.626;2024-02-21T03:17:53;8.33;;;5.30;;
16173;SDS011;14031;50.158;8.626;2024-02-21T03:20:20;10.33;;;5.20;;
16173;SDS011;14031;50.158;8.626;2024-02-21T03:22:47;11.60;;;5.43;;
16173;SDS011;14031;50.158;8.626;2024-02-21T03:25:13;17.43;;;4.87;;
16173;SDS011;14031;50.158;8.626;2024-02-21T03:27:40;7.70;;;5.20;;
16173;SDS011;14031;50.158;8.626;2024-02-21T03:30:08;10.97;;;4.67;;
16173;SDS011;14031;50.158;8.626;2024-02-21T03:32:37;8.03;;;4.97;;
16173;SDS011;14031;50.158;8.626;2024-02-21T03:35:04;15.20;;;5.47;;
16173;SDS011;14031;50.158;8.626;2024-02-21T03:37:31;9.60;;;4.60;;
16173;SDS011;14031;50.158;8.626;2024-02-21T03:39:58;9.80;;;4.40;;
16173;SDS011;14031;50.158;8.626;2024-02-21T03:42:24;13.77;;;4.90;;
16173;SDS011;14031;50.158;8.626;2024-02-21T03:44:54;9.93;;;4.57;;
16173;SDS011;14031;50.158;8.626;2024-02-21T03:47:21;10.43;;;4.60;;
16173;SDS011;14031;50.158;8.626;2024-02-21T03:49:49;15.37;;;4.77;;
16173;SDS011;14031;50.158;8.626;2024-02-21T03:52:16;9.17;;;4.70;;
16173;SDS011;14031;50.158;8.626;2024-02-21T03:54:42;10.33;;;4.47;;
16173;SDS011;14031;50.158;8.626;2024-02-21T03:57:09;8.60;;;4.70;;
16173;SDS011;14031;50.158;8.626;2024-02-21T03:59:36;6.77;;;5.50;;
16173;SDS011;14031;50.158;8.626;2024-02-21T04:02:04;10.60;;;5.03;;
16173;SDS011;14031;50.158;8.626;2024-02-21T04:04:33;12.17;;;4.70;;
16173;SDS011;14031;50.158;8.626;2024-02-21T04:07:01;8.63;;;5.50;;
16173;SDS011;14031;50.158;8.626;2024-02-21T04:09:31;9.07;;;5.07;;
16173;SDS011;14031;50.158;8.626;2024-02-21T04:11:58;12.37;;;5.30;;
16173;SDS011;14031;50.158;8.626;2024-02-21T04:14:25;12.87;;;5.57;;
16173;SDS011;14031;50.158;8.626;2024-02-21T04:16:52;11.37;;;5.10;;
16173;SDS011;14031;50.158;8.626;2024-02-21T04:19:19;11.67;;;5.20;;
16173;SDS011;14031;50.158;8.626;2024-02-21T04:21:46;7.73;;;5.30;;
16173;SDS011;14031;50.158;8.626;2024-02-21T04:24:14;6.43;;;4.93;;
16173;SDS011;14031;50.158;8.626;2024-02-21T04:26:41;9.40;;;5.07;;
16173;SDS011;14031;50.158;8.626;2024-02-21T04:29:08;7.30;;;5.57;;
16173;SDS011;14031;50.158;8.626;2024-02-21T04:31:35;8.07;;;4.83;;
16173;SDS011;14031;50.158;8.626;2024-02-21T04:34:02;7.40;;;4.50;;
16173;SDS011;14031;50.158;8.626;2024-02-21T04:36:29;9.07;;;5.90;;
16173;SDS011;14031;50.158;8.626;2024-02-21T04:38:55;6.60;;;4.70;;
16173;SDS011;14031;50.158;8.626;2024-02-21T04:41:24;12.23;;;5.60;;
16173;SDS011;14031;50.158;8.626;2024-02-21T04:43:51;6.13;;;5.40;;
16173;SDS011;14031;50.158;8.626;2024-02-21T04:46:17;10.63;;;5.40;;
16173;SDS011;14031;50.158;8.626;2024-02-21T04:48:44;12.93;;;5.80;;
16173;SDS011;14031;50.158;8.626;2024-02-21T04:51:11;12.90;;;5.67;;
16173;SDS011;14031;50.158;8.626;2024-02-21T04:53:38;12.77;;;6.00;;
16173;SDS011;14031;50.158;8.626;2024-02-21T04:56:05;11.00;;;5.90;;
16173;SDS011;14031;50.158;8.626;2024-02-21T04:58:37;9.23;;;6.37;;
16173;SDS011;14031;50.158;8.626;2024-02-21T05:01:04;9.20;;;6.00;;
16173;SDS011;14031;50.158;8.626;2024-02-21T05:03:30;13.33;;;6.20;;
16173;SDS011;14031;50.158;8.626;2024-02-21T05:05:58;10.40;;;5.87;;
16173;SDS011;14031;50.158;8.626;2024-02-21T05:08:25;8.97;;;5.60;;
16173;SDS011;14031;50.158;8.626;2024-02-21T05:10:52;8.17;;;5.93;;
16173;SDS011;14031;50.158;8.626;2024-02-21T05:13:18;10.07;;;5.93;;
16173;SDS011;14031;50.158;8.626;2024-02-21T05:15:47;15.20;;;6.23;;
16173;SDS011;14031;50.158;8.626;2024-02-21T05:18:14;11.30;;;5.87;;
16173;SDS011;14031;50.158;8.626;2024-02-21T05:20:41;9.43;;;5.43;;
16173;SDS011;14031;50.158;8.626;2024-02-21T05:23:07;13.43;;;6.53;;
16173;SDS011;14031;50.158;8.626;2024-02-21T05:25:34;10.73;;;6.73;;
16173;SDS011;14031;50.158;8.626;2024-02-21T05:28:01;10.93;;;6.23;;
16173;SDS011;14031;50.158;8.626;2024-02-21T05:30:28;10.43;;;6.40;;
16173;SDS011;14031;50.158;8.626;2024-02-21T05:32:56;12.33;;;5.60;;
16173;SDS011;14031;50.158;8.626;2024-02-21T05:35:26;8.90;;;5.37;;
16173;SDS011;14031;50.158;8.626;2024-02-21T05:37:53;6.47;;;4.70;;
16173;SDS011;14031;50.158;8.626;2024-02-21T05:40:20;10.57;;;5.60;;
16173;SDS011;14031;50.158;8.626;2024-02-21T05:42:47;12.10;;;5.17;;
16173;SDS011;14031;50.158;8.626;2024-02-21T05:45:13;8.67;;;5.37;;
16173;SDS011;14031;50.158;8.626;2024-02-21T05:47:40;7.20;;;4.93;;
16173;SDS011;14031;50.158;8.626;2024-02-21T05:50:09;7.20;;;4.83;;
16173;SDS011;14031;50.158;8.626;2024-02-21T05:52:36;9.80;;;4.90;;
16173;SDS011;14031;50.158;8.626;2024-02-21T05:55:03;9.10;;;5.00;;
16173;SDS011;14031;50.158;8.626;2024-02-21T05:57:30;13.40;;;5.27;;
16173;SDS011;14031;50.158;8.626;2024-02-21T05:59:57;8.87;;;5.80;;
16173;SDS011;14031;50.158;8.626;2024-02-21T06:02:23;7.87;;;5.10;;
16173;SDS011;14031;50.158;8.626;2024-02-21T06:04:50;5.73;;;4.57;;
16173;SDS011;14031;50.158;8.626;2024-02-21T06:07:18;13.03;;;5.90;;
16173;SDS011;14031;50.158;8.626;2024-02-21T06:09:45;14.17;;;5.57;;
16173;SDS011;14031;50.158;8.626;2024-02-21T06:12:12;9.33;;;5.33;;
16173;SDS011;14031;50.158;8.626;2024-02-21T06:14:38;7.40;;;5.03;;
16173;SDS011;14031;50.158;8.626;2024-02-21T06:17:05;10.87;;;5.00;;
16173;SDS011;14031;50.158;8.626;2024-02-21T06:19:32;7.27;;;5.50;;
16173;SDS011;14031;50.158;8.626;2024-02-21T06:21:59;13.10;;;5.50;;
16173;SDS011;14031;50.158;8.626;2024-02-21T06:24:27;10.10;;;5.80;;
16173;SDS011;14031;50.158;8.626;2024-02-21T06:26:53;12.60;;;5.50;;
16173;SDS011;14031;50.158;8.626;2024-02-21T06:29:20;13.27;;;6.20;;
16173;SDS011;14031;50.158;8.626;2024-02-21T06:31:47;10.33;;;5.97;;
16173;SDS011;14031;50.158;8.626;2024-02-21T06:34:14;9.63;;;6.10;;
16173;SDS011;14031;50.158;8.626;2024-02-21T06:36:40;14.30;;;6.73;;
16173;SDS011;14031;50.158;8.626;2024-02-21T06:39:07;8.80;;;5.60;;
16173;SDS011;14031;50.158;8.626;2024-02-21T06:41:37;11.90;;;6.27;;
16173;SDS011;14031;50.158;8.626;2024-02-21T06:44:05;10.40;;;6.57;;
16173;SDS011;14031;50.158;8.626;2024-02-21T06:46:32;14.67;;;7.20;;
16173;SDS011;14031;50.158;8.626;2024-02-21T06:48:59;9.93;;;6.73;;
16173;SDS011;14031;50.158;8.626;2024-02-21T06:51:26;12.57;;;6.17;;
16173;SDS011;14031;50.158;8.626;2024-02-21T06:53:53;14.53;;;6.57;;
16173;SDS011;14031;50.158;8.626;2024-02-21T06:56:23;12.67;;;6.20;;
16173;SDS011;14031;50.158;8.626;2024-02-21T06:58:55;9.90;;;6.47;;
16173;SDS011;14031;50.158;8.626;2024-02-21T07:01:21;11.97;;;6.63;;
16173;SDS011;14031;50.158;8.626;2024-02-21T07:03:48;11.80;;;7.27;;
16173;SDS011;14031;50.158;8.626;2024-02-21T07:06:15;11.10;;;6.63;;
16173;SDS011;14031;50.158;8.626;2024-02-21T07:08:42;16.97;;;7.13;;
16173;SDS011;14031;50.158;8.626;2024-02-21T07:11:08;13.50;;;6.47;;
16173;SDS011;14031;50.158;8.626;2024-02-21T07:13:35;12.33;;;6.13;;
16173;SDS011;14031;50.158;8.626;2024-02-21T07:16:04;11.67;;;6.93;;
16173;SDS011;14031;50.158;8.626;2024-02-21T07:18:31;10.70;;;6.47;;
16173;SDS011;14031;50.158;8.626;2024-02-21T07:20:58;14.23;;;8.40;;
16173;SDS011;14031;50.158;8.626;2024-02-21T07:23:24;7.27;;;6.43;;
16173;SDS011;14031;50.158;8.626;2024-02-21T07:25:51;12.43;;;7.40;;
16173;SDS011;14031;50.158;8.626;2024-02-21T07:28:18;10.17;;;7.50;;
16173;SDS011;14031;50.158;8.626;2024-02-21T07:30:45;11.17;;;7.57;;
16173;SDS011;14031;50.158;8.626;2024-02-21T07:33:13;15.07;;;7.77;;
16173;SDS011;14031;50.158;8.626;2024-02-21T07:35:40;11.03;;;7.03;;
16173;SDS011;14031;50.158;8.626;2024-02-21T07:38:09;15.87;;;8.07;;
16173;SDS011;14031;50.158;8.626;2024-02-21T07:40:37;14.37;;;7.77;;
16173;SDS011;14031;50.158;8.626;2024-02-21T07:43:04;8.90;;;7.30;;
16173;SDS011;14031;50.158;8.626;2024-02-21T07:45:31;13.83;;;7.20;;
16173;SDS011;14031;50.158;8.626;2024-02-21T07:47:57;10.90;;;7.50;;
16173;SDS011;14031;50.158;8.626;2024-02-21T07:50:25;8.70;;;6.20;;
16173;SDS011;14031;50.158;8.626;2024-02-21T07:52:52;12.60;;;7.93;;
16173;SDS011;14031;50.158;8.626;2024-02-21T07:55:19;13.90;;;7.00;;
16173;SDS011;14031;50.158;8.626;2024-02-21T07:57:46;15.40;;;7.13;;
16173;SDS011;14031;50.158;8.626;2024-02-21T08:00:13;11.90;;;6.87;;
16173;SDS011;14031;50.158;8.626;2024-02-21T08:02:44;9.83;;;8.23;;
16173;SDS011;14031;50.158;8.626;2024-02-21T08:05:11;9.40;;;7.13;;
16173;SDS011;14031;50.158;8.626;2024-02-21T08:07:39;12.33;;;7.20;;
16173;SDS011;14031;50.158;8.626;2024-02-21T08:10:07;12.00;;;7.03;;
16173;SDS011;14031;50.158;8.626;2024-02-21T08:12:34;7.67;;;6.70;;
16173;SDS011;14031;50.158;8.626;2024-02-21T08:15:01;10.30;;;7.43;;
16173;SDS011;14031;50.158;8.626;2024-02-21T08:17:29;13.17;;;6.43;;
16173;SDS011;14031;50.158;8.626;2024-02-21T08:19:56;8.17;;;6.60;;
16173;SDS011;14031;50.158;8.626;2024-02-21T08:22:23;8.17;;;6.60;;
16173;SDS011;14031;50.158;8.626;2024-02-21T08:24:51;12.57;;;6.57;;
16173;SDS011;14031;50.158;8.626;2024-02-21T08:27:18;9.80;;;6.30;;
16173;SDS011;14031;50.158;8.626;2024-02-21T08:29:45;9.70;;;6.03;;
16173;SDS011;14031;50.158;8.626;2024-02-21T08:32:11;10.20;;;7.33;;
16173;SDS011;14031;50.158;8.626;2024-02-21T08:34:38;9.80;;;6.97;;
16173;SDS011;14031;50.158;8.626;2024-02-21T08:37:05;9.43;;;6.77;;
16173;SDS011;14031;50.158;8.626;2024-02-21T08:39:33;12.93;;;7.43;;
16173;SDS011;14031;50.158;8.626;2024-02-21T08:42:01;14.67;;;7.30;;
16173;SDS011;14031;50.158;8.626;2024-02-21T08:44:28;8.23;;;6.90;;
16173;SDS011;14031;50.158;8.626;2024-02-21T08:46:55;9.03;;;6.60;;
16173;SDS011;14031;50.158;8.626;2024-02-21T08:49:21;10.57;;;7.43;;
16173;SDS011;14031;50.158;8.626;2024-02-21T08:51:48;11.40;;;7.37;;
16173;SDS011;14031;50.158;8.626;2024-02-21T08:54:15;9.33;;;7.53;;
16173;SDS011;14031;50.158;8.626;2024-02-21T08:56:42;11.23;;;7.27;;
16173;SDS011;14031;50.158;8.626;2024-02-21T08:59:10;11.77;;;7.50;;
16173;SDS011;14031;50.158;8.626;2024-02-21T09:01:37;10.10;;;6.90;;
16173;SDS011;14031;50.158;8.626;2024-02-21T09:04:04;11.27;;;6.77;;
16173;SDS011;14031;50.158;8.626;2024-02-21T09:06:32;11.33;;;6.90;;
16173;SDS011;14031;50.158;8.626;2024-02-21T09:09:02;10.27;;;6.50;;
16173;SDS011;14031;50.158;8.626;2024-02-21T09:11:29;10.53;;;6.33;;
16173;SDS011;14031;50.158;8.626;2024-02-21T09:13:56;8.83;;;6.50;;
16173;SDS011;14031;50.158;8.626;2024-02-21T09:16:24;7.87;;;5.93;;
16173;SDS011;14031;50.158;8.626;2024-02-21T09:18:51;9.30;;;6.20;;
16173;SDS011;14031;50.158;8.626;2024-02-21T09:21:18;11.17;;;6.07;;
16173;SDS011;14031;50.158;8.626;2024-02-21T09:23:45;10.63;;;6.07;;
16173;SDS011;14031;50.158;8.626;2024-02-21T09:26:11;7.53;;;5.87;;
16173;SDS011;14031;50.158;8.626;2024-02-21T09:28:41;8.90;;;6.53;;
16173;SDS011;14031;50.158;8.626;2024-02-21T09:31:08;13.27;;;6.60;;
16173;SDS011;14031;50.158;8.626;2024-02-21T09:33:36;10.47;;;5.93;;
16173;SDS011;14031;50.158;8.626;2024-02-21T09:36:03;9.13;;;5.80;;
16173;SDS011;14031;50.158;8.626;2024-02-21T09:38:31;7.93;;;5.00;;
16173;SDS011;14031;50.158;8.626;2024-02-21T09:40:58;7.67;;;4.73;;
16173;SDS011;14031;50.158;8.626;2024-02-21T09:43:26;6.97;;;4.67;;
16173;SDS011;14031;50.158;8.626;2024-02-21T09:45:54;6.93;;;4.77;;
16173;SDS011;14031;50.158;8.626;2024-02-21T09:48:25;6.30;;;4.93;;
16173;SDS011;14031;50.158;8.626;2024-02-21T09:51:03;6.53;;;4.17;;
16173;SDS011;14031;50.158;8.626;2024-02-21T09:53:31;5.40;;;4.83;;
16173;SDS011;14031;50.158;8.626;2024-02-21T09:56:00;10.20;;;4.40;;
16173;SDS011;14031;50.158;8.626;2024-02-21T09:58:28;5.30;;;4.17;;
16173;SDS011;14031;50.158;8.626;2024-02-21T10:00:55;8.07;;;4.97;;
16173;SDS011;14031;50.158;8.626;2024-02-21T10:03:25;8.73;;;5.27;;
16173;SDS011;14031;50.158;8.626;2024-02-21T10:05:52;7.23;;;4.70;;
16173;SDS011;14031;50.158;8.626;2024-02-21T10:08:20;8.10;;;4.10;;
16173;SDS011;14031;50.158;8.626;2024-02-21T10:10:47;6.93;;;4.20;;
16173;SDS011;14031;50.158;8.626;2024-02-21T10:13:24;8.70;;;4.53;;
16173;SDS011;14031;50.158;8.626;2024-02-21T10:16:02;8.37;;;3.90;;
16173;SDS011;14031;50.158;8.626;2024-02-21T10:18:30;11.03;;;5.07;;
16173;SDS011;14031;50.158;8.626;2024-02-21T10:21:00;4.50;;;3.87;;
16173;SDS011;14031;50.158;8.626;2024-02-21T10:23:29;8.17;;;4.30;;
16173;SDS011;14031;50.158;8.626;2024-02-21T10:26:04;5.23;;;3.80;;
16173;SDS011;14031;50.158;8.626;2024-02-21T10:28:31;9.47;;;3.20;;
16173;SDS011;14031;50.158;8.626;2024-02-21T10:30:58;5.93;;;3.77;;
16173;SDS011;14031;50.158;8.626;2024-02-21T10:33:25;6.70;;;4.03;;
16173;SDS011;14031;50.158;8.626;2024-02-21T10:35:53;6.57;;;2.97;;
16173;SDS011;14031;50.158;8.626;2024-02-21T10:38:19;7.17;;;3.40;;
16173;SDS011;14031;50.158;8.626;2024-02-21T10:40:47;4.23;;;3.20;;
16173;SDS011;14031;50.158;8.626;2024-02-21T10:43:17;5.60;;;3.37;;
16173;SDS011;14031;50.158;8.626;2024-02-21T10:45:46;7.27;;;2.97;;
16173;SDS011;14031;50.158;8.626;2024-02-21T10:48:15;5.27;;;3.70;;
16173;SDS011;14031;50.158;8.626;2024-02-21T10:50:46;5.30;;;2.87;;
16173;SDS011;14031;50.158;8.626;2024-02-21T10:53:20;8.07;;;3.27;;
16173;SDS011;14031;50.158;8.626;2024-02-21T10:55:56;5.57;;;3.37;;
16173;SDS011;14031;50.158;8.626;2024-02-21T10:58:26;7.40;;;3.80;;
16173;SDS011;14031;50.158;8.626;2024-02-21T11:00:55;7.80;;;3.50;;
16173;SDS011;14031;50.158;8.626;2024-02-21T11:03:22;6.23;;;3.03;;
16173;SDS011;14031;50.158;8.626;2024-02-21T11:05:49;5.00;;;2.80;;
16173;SDS011;14031;50.158;8.626;2024-02-21T11:08:17;7.77;;;3.60;;
16173;SDS011;14031;50.158;8.626;2024-02-21T11:10:45;9.87;;;3.30;;
16173;SDS011;14031;50.158;8.626;2024-02-21T11:13:14;8.00;;;3.00;;
16173;SDS011;14031;50.158;8.626;2024-02-21T11:15:40;5.87;;;3.27;;
16173;SDS011;14031;50.158;8.626;2024-02-21T11:18:07;6.07;;;3.03;;
16173;SDS011;14031;50.158;8.626;2024-02-21T11:20:35;7.03;;;2.97;;
16173;SDS011;14031;50.158;8.626;2024-02-21T11:23:02;6.93;;;2.90;;
16173;SDS011;14031;50.158;8.626;2024-02-21T11:25:30;7.03;;;3.20;;
16173;SDS011;14031;50.158;8.626;2024-02-21T11:28:01;12.83;;;4.10;;
16173;SDS011;14031;50.158;8.626;2024-02-21T11:30:31;6.50;;;3.40;;
16173;SDS011;14031;50.158;8.626;2024-02-21T11:32:59;4.30;;;3.30;;
16173;SDS011;14031;50.158;8.626;2024-02-21T11:35:30;4.77;;;3.30;;
16173;SDS011;14031;50.158;8.626;2024-02-21T11:38:07;7.03;;;2.87;;
16173;SDS011;14031;50.158;8.626;2024-02-21T11:40:35;5.10;;;3.10;;
16173;SDS011;14031;50.158;8.626;2024-02-21T11:43:04;5.57;;;3.03;;
16173;SDS011;14031;50.158;8.626;2024-02-21T11:45:32;3.80;;;3.30;;
16173;SDS011;14031;50.158;8.626;2024-02-21T11:47:59;5.80;;;2.83;;
16173;SDS011;14031;50.158;8.626;2024-02-21T11:50:28;5.03;;;3.03;;
16173;SDS011;14031;50.158;8.626;2024-02-21T11:52:55;8.20;;;3.20;;
16173;SDS011;14031;50.158;8.626;2024-02-21T11:55:22;7.10;;;3.57;;
16173;SDS011;14031;50.158;8.626;2024-02-21T11:57:49;7.83;;;3.40;;
16173;SDS011;14031;50.158;8.626;2024-02-21T12:00:17;3.33;;;3.13;;
16173;SDS011;14031;50.158;8.626;2024-02-21T12:02:47;5.93;;;3.43;;
16173;SDS011;14031;50.158;8.626;2024-02-21T12:05:18;7.33;;;3.37;;
16173;SDS011;14031;50.158;8.626;2024-02-21T12:07:45;6.60;;;3.37;;
16173;SDS011;14031;50.158;8.626;2024-02-21T12:10:12;8.47;;;3.40;;
16173;SDS011;14031;50.158;8.626;2024-02-21T12:12:39;8.17;;;3.60;;
16173;SDS011;14031;50.158;8.626;2024-02-21T12:15:07;8.50;;;3.37;;
16173;SDS011;14031;50.158;8.626;2024-02-21T12:17:34;4.67;;;3.30;;
16173;SDS011;14031;50.158;8.626;2024-02-21T12:20:02;7.43;;;3.83;;
16173;SDS011;14031;50.158;8.626;2024-02-21T12:22:33;7.10;;;3.50;;
16173;SDS011;14031;50.158;8.626;2024-02-21T12:25:02;5.27;;;3.07;;
16173;SDS011;14031;50.158;8.626;2024-02-21T12:27:32;5.30;;;3.00;;
16173;SDS011;14031;50.158;8.626;2024-02-21T12:29:59;6.50;;;2.90;;
16173;SDS011;14031;50.158;8.626;2024-02-21T12:32:26;3.87;;;2.80;;
16173;SDS011;14031;50.158;8.626;2024-02-21T12:34:53;7.23;;;3.17;;
16173;SDS011;14031;50.158;8.626;2024-02-21T12:37:21;3.77;;;2.70;;
16173;SDS011;14031;50.158;8.626;2024-02-21T12:39:50;6.90;;;3.20;;
16173;SDS011;14031;50.158;8.626;2024-02-21T12:42:16;3.10;;;2.80;;
16173;SDS011;14031;50.158;8.626;2024-02-21T12:44:43;6.20;;;2.73;;
16173;SDS011;14031;50.158;8.626;2024-02-21T12:47:10;4.03;;;2.67;;
16173;SDS011;14031;50.158;8.626;2024-02-21T12:49:38;7.13;;;3.27;;
16173;SDS011;14031;50.158;8.626;2024-02-21T12:52:04;6.40;;;3.13;;
16173;SDS011;14031;50.158;8.626;2024-02-21T12:54:33;5.27;;;3.30;;
16173;SDS011;14031;50.158;8.626;2024-02-21T12:57:00;9.73;;;3.10;;
16173;SDS011;14031;50.158;8.626;2024-02-21T12:59:28;8.17;;;2.90;;
16173;SDS011;14031;50.158;8.626;2024-02-21T13:01:54;9.93;;;3.30;;
16173;SDS011;14031;50.158;8.626;2024-02-21T13:04:21;5.87;;;2.83;;
16173;SDS011;14031;50.158;8.626;2024-02-21T13:06:49;7.63;;;3.40;;
16173;SDS011;14031;50.158;8.626;2024-02-21T13:09:16;4.17;;;2.63;;
16173;SDS011;14031;50.158;8.626;2024-02-21T13:11:44;6.63;;;2.53;;
16173;SDS011;14031;50.158;8.626;2024-02-21T13:14:11;5.27;;;2.33;;
16173;SDS011;14031;50.158;8.626;2024-02-21T13:16:38;7.23;;;2.93;;
16173;SDS011;14031;50.158;8.626;2024-02-21T13:19:05;15.07;;;4.60;;
16173;SDS011;14031;50.158;8.626;2024-02-21T13:21:33;3.90;;;2.97;;
16173;SDS011;14031;50.158;8.626;2024-02-21T13:24:00;2.93;;;2.60;;
16173;SDS011;14031;50.158;8.626;2024-02-21T13:26:26;7.17;;;3.90;;
16173;SDS011;14031;50.158;8.626;2024-02-21T13:28:55;3.00;;;2.50;;
16173;SDS011;14031;50.158;8.626;2024-02-21T13:31:21;4.87;;;2.80;;
16173;SDS011;14031;50.158;8.626;2024-02-21T13:33:50;4.87;;;2.87;;
16173;SDS011;14031;50.158;8.626;2024-02-21T13:36:17;3.70;;;2.47;;
16173;SDS011;14031;50.158;8.626;2024-02-21T13:38:44;5.43;;;2.60;;
16173;SDS011;14031;50.158;8.626;2024-02-21T13:41:11;10.20;;;2.80;;
16173;SDS011;14031;50.158;8.626;2024-02-21T13:43:38;4.10;;;2.70;;
16173;SDS011;14031;50.158;8.626;2024-02-21T13:46:07;4.67;;;2.13;;
16173;SDS011;14031;50.158;8.626;2024-02-21T13:48:34;2.23;;;2.03;;
16173;SDS011;14031;50.158;8.626;2024-02-21T13:51:01;3.73;;;2.40;;
16173;SDS011;14031;50.158;8.626;2024-02-21T13:53:28;3.87;;;2.33;;
16173;SDS011;14031;50.158;8.626;2024-02-21T13:55:55;4.30;;;2.60;;
16173;SDS011;14031;50.158;8.626;2024-02-21T13:58:22;5.57;;;2.43;;
16173;SDS011;14031;50.158;8.626;2024-02-21T14:00:51;4.73;;;2.20;;
16173;SDS011;14031;50.158;8.626;2024-02-21T14:03:19;3.77;;;2.27;;
16173;SDS011;14031;50.158;8.626;2024-02-21T14:05:46;4.53;;;2.30;;
16173;SDS011;14031;50.158;8.626;2024-02-21T14:08:13;5.80;;;2.00;;
16173;SDS011;14031;50.158;8.626;2024-02-21T14:10:40;8.17;;;2.50;;
16173;SDS011;14031;50.158;8.626;2024-02-21T14:13:07;3.07;;;2.60;;
16173;SDS011;14031;50.158;8.626;2024-02-21T14:15:34;6.20;;;2.63;;
16173;SDS011;14031;50.158;8.626;2024-02-21T14:18:01;3.53;;;2.53;;
16173;SDS011;14031;50.158;8.626;2024-02-21T14:20:32;8.57;;;2.33;;
16173;SDS011;14031;50.158;8.626;2024-02-21T14:22:59;6.80;;;2.70;;
16173;SDS011;14031;50.158;8.626;2024-02-21T14:25:25;4.10;;;2.20;;
16173;SDS011;14031;50.158;8.626;2024-02-21T14:27:52;4.97;;;2.57;;
16173;SDS011;14031;50.158;8.626;2024-02-21T14:30:19;11.23;;;2.67;;
16173;SDS011;14031;50.158;8.626;2024-02-21T14:32:46;3.60;;;2.13;;
16173;SDS011;14031;50.158;8.626;2024-02-21T14:35:12;5.67;;;2.10;;
16173;SDS011;14031;50.158;8.626;2024-02-21T14:37:41;11.13;;;2.37;;
16173;SDS011;14031;50.158;8.626;2024-02-21T14:40:08;1.97;;;1.80;;
16173;SDS011;14031;50.158;8.626;2024-02-21T14:42:36;6.77;;;2.33;;
16173;SDS011;14031;50.158;8.626;2024-02-21T14:45:03;6.63;;;2.10;;